createdAt,value
2023-05-06T07:50:13.519Z,98178.88
2023-05-06T07:52:43.546Z,98183.94
2023-05-06T07:55:12.979Z,98187.96
2023-05-06T07:57:43.150Z,98187.30
2023-05-06T08:00:13.310Z,98181.91
2023-05-06T08:02:50.228Z,98182.79
2023-05-06T08:05:19.885Z,98179.44
2023-05-06T08:07:51.048Z,98183.00
2023-05-06T08:10:20.422Z,98186.55
2023-05-06T08:12:49.699Z,98181.57
2023-05-06T08:15:20.191Z,98182.77
2023-05-06T08:17:50.188Z,98182.91
2023-05-06T08:20:22.819Z,98181.42
2023-05-06T08:22:52.649Z,98185.20
2023-05-06T08:25:22.424Z,98182.95
2023-05-06T08:27:52.422Z,98186.45
2023-05-06T08:30:21.763Z,98182.09
2023-05-06T08:32:50.336Z,98181.95
2023-05-06T08:35:18.883Z,98184.17
2023-05-06T08:37:47.361Z,98182.57
2023-05-06T08:40:20.269Z,98183.80
2023-05-06T08:42:50.988Z,98183.39
2023-05-06T08:45:23.286Z,98179.25
2023-05-06T08:47:52.807Z,98178.04
2023-05-06T08:50:21.285Z,98175.45
2023-05-06T08:52:51.288Z,98181.27
2023-05-06T08:55:19.831Z,98177.17
2023-05-06T08:57:50.372Z,98172.88
2023-05-06T09:00:18.941Z,98169.42
2023-05-06T09:02:47.526Z,98170.21
2023-05-06T09:05:18.120Z,98172.68
2023-05-06T09:07:46.451Z,98172.61
2023-05-06T09:10:15.766Z,98176.89
2023-05-06T09:12:43.774Z,98173.92
2023-05-06T09:15:12.530Z,98169.85
2023-05-06T09:17:41.231Z,98162.56
2023-05-06T09:20:13.060Z,98162.70
2023-05-06T09:22:41.541Z,98162.37
2023-05-06T09:25:12.460Z,98155.59
2023-05-06T09:27:41.145Z,98154.64
2023-05-06T09:30:13.399Z,98159.30
2023-05-06T09:33:38.192Z,98157.39
2023-05-06T09:36:07.506Z,98154.18
2023-05-06T09:38:35.846Z,98146.77
2023-05-06T09:41:04.979Z,98147.52
2023-05-06T09:43:35.431Z,98153.34
2023-05-06T09:46:09.283Z,98148.45
2023-05-06T09:48:39.235Z,98146.27
2023-05-06T09:51:08.038Z,98143.77
2023-05-06T09:53:39.675Z,98145.54
2023-05-06T09:56:08.972Z,98144.16
2023-05-06T09:58:44.554Z,98142.45
2023-05-06T10:01:19.288Z,98141.13
2023-05-06T10:04:11.332Z,98138.37
2023-05-06T10:06:44.056Z,98138.84
2023-05-06T10:09:13.241Z,98143.96
2023-05-06T10:11:41.893Z,98142.73
2023-05-06T10:14:13.494Z,98143.13
2023-05-06T10:16:42.522Z,98135.73
2023-05-06T10:19:12.296Z,98137.13
2023-05-06T10:21:46.823Z,98136.54
2023-05-06T10:24:18.066Z,98127.75
2023-05-06T10:26:49.098Z,98130.59
2023-05-06T10:29:19.335Z,98123.76
2023-05-06T10:31:56.012Z,98122.56
2023-05-06T10:34:29.083Z,98118.92
2023-05-06T10:37:02.087Z,98120.34
2023-05-06T10:39:30.646Z,98125.54
2023-05-06T10:41:58.920Z,98120.84
2023-05-06T10:44:46.208Z,98122.48
2023-05-06T10:47:14.621Z,98129.69
2023-05-06T10:50:21.355Z,98125.34
2023-05-06T10:52:57.271Z,98123.20
2023-05-06T10:55:28.149Z,98125.74
2023-05-06T10:58:19.914Z,98119.84
2023-05-06T11:01:02.480Z,98120.52
2023-05-06T11:03:34.235Z,98120.45
2023-05-06T11:06:03.170Z,98115.80
2023-05-06T11:08:31.384Z,98118.04
2023-05-06T11:11:00.809Z,98112.98
2023-05-06T11:13:35.381Z,98110.39
2023-05-06T11:16:03.656Z,98114.54
2023-05-06T11:18:34.401Z,98111.29
2023-05-06T11:21:07.632Z,98107.44
2023-05-06T11:23:53.252Z,98103.38
2023-05-06T11:26:24.641Z,98106.76
2023-05-06T11:28:53.395Z,98102.09
2023-05-06T11:31:23.338Z,98108.20
2023-05-06T11:33:55.407Z,98114.00
2023-05-06T11:36:53.857Z,98117.80
2023-05-06T11:39:22.434Z,98114.27
2023-05-06T11:41:54.814Z,98115.23
2023-05-06T11:44:29.436Z,98116.83
2023-05-06T11:47:06.838Z,98120.02
2023-05-06T11:49:43.534Z,98126.76
2023-05-06T11:52:14.159Z,98126.20
2023-05-06T11:54:43.125Z,98123.00
2023-05-06T11:57:11.916Z,98117.87
2023-05-06T11:59:41.348Z,98123.08
2023-05-06T12:07:44.424Z,98126.87
2023-05-06T12:10:14.572Z,98133.02
2023-05-06T12:12:44.271Z,98129.27
2023-05-06T12:15:13.860Z,98132.88
2023-05-06T12:17:42.157Z,98138.39
2023-05-06T12:20:12.681Z,98141.27
2023-05-06T12:22:45.423Z,98139.64
2023-05-06T12:25:15.702Z,98139.60
2023-05-06T12:27:45.502Z,98136.14
2023-05-06T12:30:14.577Z,98132.25
2023-05-06T12:33:11.420Z,98134.12
2023-05-06T12:35:43.114Z,98135.73
2023-05-06T12:38:36.985Z,98133.00
2023-05-06T12:41:10.567Z,98132.57
2023-05-06T12:43:39.942Z,98133.77
2023-05-06T12:46:09.303Z,98138.36
2023-05-06T12:48:39.390Z,98138.70
2023-05-06T12:51:41.859Z,98136.20
2023-05-06T12:54:30.876Z,98140.39
2023-05-06T12:56:59.006Z,98136.39
2023-05-06T12:59:28.117Z,98138.52
2023-05-06T13:01:56.455Z,98135.14
2023-05-06T13:11:56.561Z,98132.83
2023-05-06T13:14:25.000Z,98132.77
2023-05-06T13:16:53.763Z,98134.48
2023-05-06T13:19:32.440Z,98128.61
2023-05-06T13:27:09.741Z,98132.70
2023-05-06T13:29:40.558Z,98129.88
2023-05-06T13:32:09.116Z,98126.08
2023-05-06T13:34:37.888Z,98127.31
2023-05-06T13:37:06.614Z,98126.11
2023-05-06T13:39:35.403Z,98128.04
2023-05-06T13:42:06.092Z,98127.79
2023-05-06T13:44:37.882Z,98131.46
2023-05-06T13:47:06.686Z,98129.61
2023-05-06T13:49:35.832Z,98131.85
2023-05-06T13:52:05.714Z,98132.11
2023-05-06T13:54:36.326Z,98134.38
2023-05-06T13:57:04.898Z,98141.88
2023-05-06T13:59:33.280Z,98142.04
2023-05-06T14:02:01.840Z,98149.36
2023-05-06T14:04:30.769Z,98148.11
2023-05-06T14:06:59.342Z,98145.02
2023-05-06T14:09:27.294Z,98142.87
2023-05-06T14:11:56.185Z,98146.52
2023-05-06T14:14:24.974Z,98150.65
2023-05-06T14:16:55.817Z,98148.48
2023-05-06T14:19:24.221Z,98149.49
2023-05-06T14:21:53.084Z,98152.79
2023-05-06T14:24:21.756Z,98149.35
2023-05-06T14:26:50.061Z,98153.05
2023-05-06T14:29:18.422Z,98156.02
2023-05-06T14:31:46.599Z,98157.58
2023-05-06T14:34:15.082Z,98154.11
2023-05-06T14:36:44.272Z,98158.21
2023-05-06T14:39:15.983Z,98157.81
2023-05-06T14:41:44.014Z,98157.10
2023-05-06T14:44:12.994Z,98157.14
2023-05-06T14:46:42.288Z,98157.84
2023-05-06T14:49:11.094Z,98155.45
2023-05-06T14:51:39.089Z,98154.38
2023-05-06T14:54:07.521Z,98154.64
2023-05-06T14:56:36.723Z,98155.06
2023-05-06T14:59:04.901Z,98153.10
2023-05-06T15:01:34.023Z,98155.83
2023-05-06T15:04:03.190Z,98158.60
2023-05-06T15:06:32.180Z,98159.03
2023-05-06T15:09:01.793Z,98161.81
2023-05-06T15:11:30.165Z,98163.27
2023-05-06T15:13:58.373Z,98164.06
2023-05-06T15:16:26.578Z,98165.55
2023-05-06T15:18:56.457Z,98164.55
2023-05-06T15:21:25.822Z,98162.54
2023-05-06T15:23:57.750Z,98163.07
2023-05-06T15:26:26.161Z,98160.55
2023-05-06T15:28:54.566Z,98161.23
2023-05-06T15:31:23.244Z,98164.77
2023-05-06T15:33:52.135Z,98162.23
2023-05-06T15:36:21.316Z,98160.92
2023-05-06T15:38:52.572Z,98163.58
2023-05-06T15:41:21.204Z,98158.88
2023-05-06T15:43:49.446Z,98157.64
2023-05-06T15:46:20.493Z,98160.01
2023-05-06T15:48:52.050Z,98158.15
2023-05-06T15:51:31.251Z,98161.54
2023-05-06T15:53:59.336Z,98159.64
2023-05-06T15:56:35.060Z,98157.39
2023-05-06T15:59:12.270Z,98162.99
2023-05-06T16:02:24.844Z,98163.68
2023-05-06T16:04:33.452Z,98166.74
2023-05-06T16:07:02.975Z,98167.60
2023-05-06T16:09:31.302Z,98168.20
2023-05-06T16:11:59.946Z,98167.07
2023-05-06T16:14:28.162Z,98169.43
2023-05-06T16:16:56.797Z,98167.13
2023-05-06T16:19:24.965Z,98169.56
2023-05-06T16:21:53.567Z,98164.27
2023-05-06T16:24:22.033Z,98162.44
2023-05-06T16:26:50.198Z,98166.09
2023-05-06T16:29:21.455Z,98167.41
2023-05-06T16:31:50.054Z,98160.92
2023-05-06T16:34:18.722Z,98162.39
2023-05-06T16:36:48.091Z,98169.29
2023-05-06T16:39:17.528Z,98169.94
2023-05-06T16:41:46.828Z,98167.52
2023-05-06T16:44:16.104Z,98170.80
2023-05-06T16:46:45.037Z,98163.95
2023-05-06T16:49:13.401Z,98168.34
2023-05-06T16:51:41.785Z,98168.88
2023-05-06T16:54:10.122Z,98173.02
2023-05-06T16:56:50.651Z,98170.20
2023-05-06T16:59:22.645Z,98169.38
2023-05-06T17:01:51.254Z,98174.94
2023-05-06T17:04:25.368Z,98178.30
2023-05-06T17:06:55.216Z,98175.87
2023-05-06T17:09:23.647Z,98179.77
2023-05-06T17:11:52.016Z,98178.52
2023-05-06T17:14:20.132Z,98179.16
2023-05-06T17:16:52.206Z,98178.52
2023-05-06T17:19:20.555Z,98176.92
2023-05-06T17:21:48.877Z,98176.61
2023-05-06T17:24:18.427Z,98176.50
2023-05-06T17:26:47.077Z,98176.66
2023-05-06T17:29:15.832Z,98178.03
2023-05-06T17:31:44.048Z,98174.94
2023-05-06T17:34:13.168Z,98169.87
2023-05-06T17:36:41.441Z,98183.78
2023-05-06T17:44:43.136Z,98185.09
2023-05-06T17:47:11.564Z,98186.19
2023-05-06T17:49:39.651Z,98188.62
2023-05-06T17:52:08.403Z,98192.23
2023-05-06T17:54:38.620Z,98191.91
2023-05-06T17:58:21.931Z,98195.11
2023-05-06T18:00:50.620Z,98196.45
2023-05-06T18:03:19.416Z,98195.44
2023-05-06T18:05:47.775Z,98197.04
2023-05-06T18:08:16.102Z,98196.55
2023-05-06T18:10:46.081Z,98197.88
2023-05-06T18:13:14.476Z,98201.10
2023-05-06T18:15:43.188Z,98204.48
2023-05-06T18:18:11.392Z,98205.14
2023-05-06T18:20:40.021Z,98206.06
2023-05-06T18:23:10.373Z,98206.43
2023-05-06T18:25:39.211Z,98209.95
2023-05-06T18:28:07.916Z,98210.31
2023-05-06T18:30:36.449Z,98213.02
2023-05-06T18:33:05.175Z,98215.48
2023-05-06T18:35:33.534Z,98216.27
2023-05-06T18:38:01.596Z,98218.04
2023-05-06T18:40:30.397Z,98220.08
2023-05-06T18:42:58.640Z,98221.04
2023-05-06T18:45:27.080Z,98221.80
2023-05-06T18:47:55.669Z,98226.80
2023-05-06T18:50:24.879Z,98233.42
2023-05-06T18:52:59.958Z,98234.27
2023-05-06T18:55:28.403Z,98238.48
2023-05-06T18:58:01.021Z,98233.67
2023-05-06T19:00:29.191Z,98235.97
2023-05-06T19:02:57.494Z,98232.04
2023-05-06T19:05:26.967Z,98238.41
2023-05-06T19:07:55.143Z,98240.50
2023-05-06T19:10:24.277Z,98245.25
2023-05-06T19:12:52.860Z,98245.05
2023-05-06T19:15:21.398Z,98247.73
2023-05-06T19:17:49.742Z,98244.54
2023-05-06T19:20:18.060Z,98243.45
2023-05-06T19:22:47.060Z,98237.23
2023-05-06T19:25:17.900Z,98239.98
2023-05-06T19:27:46.592Z,98248.20
2023-05-06T19:30:15.109Z,98248.15
2023-05-06T19:32:44.985Z,98248.61
2023-05-06T19:35:13.430Z,98247.55
2023-05-06T19:37:41.931Z,98245.88
2023-05-06T19:40:10.915Z,98244.71
2023-05-06T19:42:39.295Z,98250.96
2023-05-06T19:45:09.052Z,98250.13
2023-05-06T19:47:40.597Z,98249.88
2023-05-06T19:50:10.555Z,98254.04
2023-05-06T19:52:39.265Z,98258.25
2023-05-06T19:55:09.485Z,98256.53
2023-05-06T19:57:38.776Z,98257.10
2023-05-06T20:00:12.557Z,98259.42
2023-05-06T20:02:41.359Z,98265.48
2023-05-06T20:05:10.992Z,98267.16
2023-05-06T20:07:39.663Z,98275.02
2023-05-06T20:10:34.357Z,98274.32
2023-05-06T20:13:02.918Z,98272.52
2023-05-06T20:15:32.227Z,98269.56
2023-05-06T20:18:00.848Z,98268.73
2023-05-06T20:20:34.597Z,98268.65
2023-05-06T20:23:04.027Z,98265.81
2023-05-06T20:25:34.395Z,98266.59
2023-05-06T20:28:04.511Z,98266.36
2023-05-06T20:30:33.750Z,98263.90
2023-05-06T20:33:02.294Z,98265.98
2023-05-06T20:35:31.011Z,98263.15
2023-05-06T20:37:59.111Z,98258.79
2023-05-06T20:40:28.954Z,98256.38
2023-05-06T20:42:57.093Z,98254.55
2023-05-06T20:45:26.378Z,98253.41
2023-05-06T20:47:54.700Z,98249.21
2023-05-06T20:50:22.940Z,98249.80
2023-05-06T20:52:53.589Z,98251.81
2023-05-06T20:55:25.267Z,98251.48
2023-05-06T20:57:54.070Z,98255.03
2023-05-06T21:00:23.120Z,98256.52
2023-05-06T21:08:02.163Z,98268.79
2023-05-06T21:10:30.755Z,98276.42
2023-05-06T21:13:01.239Z,98277.04
2023-05-06T21:15:29.859Z,98278.39
2023-05-06T21:17:58.273Z,98274.52
2023-05-06T21:20:26.923Z,98274.66
2023-05-06T21:22:55.814Z,98277.14
2023-05-06T21:25:23.891Z,98279.39
2023-05-06T21:27:52.368Z,98282.36
2023-05-06T21:30:25.350Z,98289.04
2023-05-06T21:32:53.641Z,98288.30
2023-05-06T21:35:23.541Z,98291.14
2023-05-06T21:37:53.351Z,98287.64
2023-05-06T21:40:21.727Z,98289.23
2023-05-06T21:42:52.870Z,98287.08
2023-05-06T21:45:21.497Z,98286.90
2023-05-06T21:47:51.077Z,98282.75
2023-05-06T21:50:22.259Z,98284.43
2023-05-06T21:52:51.002Z,98281.17
2023-05-06T21:55:22.470Z,98280.73
2023-05-06T21:57:50.472Z,98276.77
2023-05-06T22:00:18.999Z,98275.23
2023-05-06T22:02:47.856Z,98275.19
2023-05-06T22:05:16.973Z,98277.23
2023-05-06T22:07:48.450Z,98276.84
2023-05-06T22:10:19.462Z,98277.86
2023-05-06T22:12:47.576Z,98277.70
2023-05-06T22:15:16.129Z,98278.33
2023-05-06T22:17:44.891Z,98276.27
2023-05-06T22:20:15.474Z,98278.59
2023-05-06T22:22:44.639Z,98275.10
2023-05-06T22:25:13.822Z,98277.44
2023-05-06T22:27:42.516Z,98278.10
2023-05-06T22:30:33.416Z,98279.42
2023-05-06T22:33:01.908Z,98277.70
2023-05-06T22:35:30.047Z,98276.38
2023-05-06T22:37:58.956Z,98278.85
2023-05-06T22:40:28.208Z,98277.23
2023-05-06T22:42:56.640Z,98273.59
2023-05-06T22:45:25.337Z,98272.86
2023-05-06T22:47:53.640Z,98276.79
2023-05-06T22:50:22.077Z,98278.61
2023-05-06T22:52:50.494Z,98278.91
2023-05-06T22:55:18.945Z,98284.59
2023-05-06T22:57:52.023Z,98288.03
2023-05-06T23:00:21.121Z,98288.59
2023-05-06T23:02:49.814Z,98290.13
2023-05-06T23:05:17.990Z,98286.61
2023-05-06T23:07:46.693Z,98287.27
2023-05-06T23:10:15.055Z,98284.70
2023-05-06T23:12:43.269Z,98281.17
2023-05-06T23:15:12.570Z,98284.43
2023-05-06T23:17:42.778Z,98282.91
2023-05-06T23:20:13.572Z,98284.30
2023-05-06T23:22:42.452Z,98284.03
2023-05-06T23:25:12.114Z,98282.24
2023-05-06T23:27:40.909Z,98278.98
2023-05-06T23:30:14.458Z,98277.95
2023-05-06T23:32:42.858Z,98277.04
2023-05-06T23:35:11.430Z,98274.63
2023-05-06T23:37:40.930Z,98277.60
2023-05-06T23:40:16.276Z,98277.20
2023-05-06T23:42:45.278Z,98277.07
2023-05-06T23:45:13.633Z,98276.57
2023-05-06T23:47:42.211Z,98273.82
2023-05-06T23:50:12.056Z,98270.92
2023-05-06T23:52:41.046Z,98272.00
2023-05-06T23:55:12.478Z,98270.16
2023-05-06T23:57:41.221Z,98278.98
